sensor_id;sensor_type;location;lat;lon;timestamp;P1;durP1;ratioP1;P2;durP2;ratioP2
32611;SDS011;19030;49.478;8.986;2023-08-31T00:01:10;9.05;;;4.40;;
32611;SDS011;19030;49.478;8.986;2023-08-31T00:03:12;7.05;;;4.50;;
32611;SDS011;19030;49.478;8.986;2023-08-31T00:05:13;7.25;;;4.63;;
32611;SDS011;19030;49.478;8.986;2023-08-31T00:07:14;7.93;;;4.90;;
32611;SDS011;19030;49.478;8.986;2023-08-31T00:09:15;5.82;;;4.32;;
32611;SDS011;19030;49.478;8.986;2023-08-31T00:11:15;6.68;;;4.50;;
32611;SDS011;19030;49.478;8.986;2023-08-31T00:13:16;8.57;;;5.00;;
32611;SDS011;19030;49.478;8.986;2023-08-31T00:15:16;7.68;;;4.95;;
32611;SDS011;19030;49.478;8.986;2023-08-31T00:17:17;9.70;;;5.05;;
32611;SDS011;19030;49.478;8.986;2023-08-31T00:19:18;7.22;;;4.90;;
32611;SDS011;19030;49.478;8.986;2023-08-31T00:21:19;7.68;;;4.80;;
32611;SDS011;19030;49.478;8.986;2023-08-31T00:23:21;8.75;;;5.22;;
32611;SDS011;19030;49.478;8.986;2023-08-31T00:25:21;6.93;;;4.55;;
32611;SDS011;19030;49.478;8.986;2023-08-31T00:27:22;10.68;;;4.60;;
32611;SDS011;19030;49.478;8.986;2023-08-31T00:29:23;6.55;;;4.35;;
32611;SDS011;19030;49.478;8.986;2023-08-31T00:31:25;9.85;;;5.00;;
32611;SDS011;19030;49.478;8.986;2023-08-31T00:33:27;9.52;;;5.07;;
32611;SDS011;19030;49.478;8.986;2023-08-31T00:35:28;7.30;;;4.20;;
32611;SDS011;19030;49.478;8.986;2023-08-31T00:37:30;10.90;;;4.95;;
32611;SDS011;19030;49.478;8.986;2023-08-31T00:39:31;7.82;;;4.85;;
32611;SDS011;19030;49.478;8.986;2023-08-31T00:41:33;9.80;;;4.55;;
32611;SDS011;19030;49.478;8.986;2023-08-31T00:43:33;9.82;;;5.30;;
32611;SDS011;19030;49.478;8.986;2023-08-31T00:45:34;9.20;;;4.55;;
32611;SDS011;19030;49.478;8.986;2023-08-31T00:47:36;7.32;;;4.80;;
32611;SDS011;19030;49.478;8.986;2023-08-31T00:49:37;8.15;;;4.93;;
32611;SDS011;19030;49.478;8.986;2023-08-31T00:51:37;9.45;;;5.25;;
32611;SDS011;19030;49.478;8.986;2023-08-31T00:53:38;7.88;;;4.78;;
32611;SDS011;19030;49.478;8.986;2023-08-31T00:55:39;7.57;;;4.85;;
32611;SDS011;19030;49.478;8.986;2023-08-31T00:57:40;9.38;;;4.72;;
32611;SDS011;19030;49.478;8.986;2023-08-31T00:59:41;7.25;;;4.95;;
32611;SDS011;19030;49.478;8.986;2023-08-31T01:01:49;9.60;;;4.70;;
32611;SDS011;19030;49.478;8.986;2023-08-31T01:04:06;7.07;;;4.97;;
32611;SDS011;19030;49.478;8.986;2023-08-31T01:08:49;8.25;;;4.90;;
32611;SDS011;19030;49.478;8.986;2023-08-31T01:11:00;8.60;;;4.85;;
32611;SDS011;19030;49.478;8.986;2023-08-31T01:13:15;9.15;;;4.80;;
32611;SDS011;19030;49.478;8.986;2023-08-31T01:15:21;9.68;;;5.00;;
32611;SDS011;19030;49.478;8.986;2023-08-31T01:17:22;10.35;;;4.72;;
32611;SDS011;19030;49.478;8.986;2023-08-31T01:19:30;7.40;;;4.85;;
32611;SDS011;19030;49.478;8.986;2023-08-31T01:21:40;8.98;;;4.95;;
32611;SDS011;19030;49.478;8.986;2023-08-31T01:23:50;8.32;;;5.00;;
32611;SDS011;19030;49.478;8.986;2023-08-31T01:25:54;7.63;;;5.07;;
32611;SDS011;19030;49.478;8.986;2023-08-31T01:27:56;7.40;;;4.70;;
32611;SDS011;19030;49.478;8.986;2023-08-31T01:29:59;7.07;;;4.85;;
32611;SDS011;19030;49.478;8.986;2023-08-31T01:32:00;8.70;;;4.93;;
32611;SDS011;19030;49.478;8.986;2023-08-31T01:34:00;8.40;;;5.00;;
32611;SDS011;19030;49.478;8.986;2023-08-31T01:36:03;9.88;;;5.82;;
32611;SDS011;19030;49.478;8.986;2023-08-31T01:38:08;10.07;;;5.78;;
32611;SDS011;19030;49.478;8.986;2023-08-31T01:40:19;8.25;;;5.60;;
32611;SDS011;19030;49.478;8.986;2023-08-31T01:42:26;7.35;;;4.85;;
32611;SDS011;19030;49.478;8.986;2023-08-31T01:44:29;7.45;;;4.78;;
32611;SDS011;19030;49.478;8.986;2023-08-31T01:46:33;10.60;;;5.60;;
32611;SDS011;19030;49.478;8.986;2023-08-31T01:48:38;11.38;;;5.55;;
32611;SDS011;19030;49.478;8.986;2023-08-31T01:50:40;9.17;;;5.27;;
32611;SDS011;19030;49.478;8.986;2023-08-31T01:52:41;7.43;;;5.25;;
32611;SDS011;19030;49.478;8.986;2023-08-31T01:54:41;11.50;;;5.95;;
32611;SDS011;19030;49.478;8.986;2023-08-31T01:56:42;9.32;;;5.25;;
32611;SDS011;19030;49.478;8.986;2023-08-31T01:58:43;15.15;;;5.75;;
32611;SDS011;19030;49.478;8.986;2023-08-31T02:00:43;8.88;;;5.63;;
32611;SDS011;19030;49.478;8.986;2023-08-31T02:02:45;8.15;;;5.18;;
32611;SDS011;19030;49.478;8.986;2023-08-31T02:04:47;9.80;;;5.32;;
32611;SDS011;19030;49.478;8.986;2023-08-31T02:06:48;7.85;;;5.20;;
32611;SDS011;19030;49.478;8.986;2023-08-31T02:08:48;14.10;;;5.20;;
32611;SDS011;19030;49.478;8.986;2023-08-31T02:10:51;9.00;;;5.43;;
32611;SDS011;19030;49.478;8.986;2023-08-31T02:12:56;9.40;;;5.20;;
32611;SDS011;19030;49.478;8.986;2023-08-31T02:14:57;11.15;;;5.30;;
32611;SDS011;19030;49.478;8.986;2023-08-31T02:16:58;11.05;;;5.70;;
32611;SDS011;19030;49.478;8.986;2023-08-31T02:19:00;7.53;;;5.22;;
32611;SDS011;19030;49.478;8.986;2023-08-31T02:21:00;8.02;;;5.32;;
32611;SDS011;19030;49.478;8.986;2023-08-31T02:23:01;8.45;;;5.40;;
32611;SDS011;19030;49.478;8.986;2023-08-31T02:25:02;11.52;;;6.03;;
32611;SDS011;19030;49.478;8.986;2023-08-31T02:27:03;12.13;;;6.10;;
32611;SDS011;19030;49.478;8.986;2023-08-31T02:29:04;10.07;;;6.05;;
32611;SDS011;19030;49.478;8.986;2023-08-31T02:31:07;11.27;;;6.07;;
32611;SDS011;19030;49.478;8.986;2023-08-31T02:33:07;9.95;;;5.80;;
32611;SDS011;19030;49.478;8.986;2023-08-31T02:35:08;9.35;;;6.25;;
32611;SDS011;19030;49.478;8.986;2023-08-31T02:37:08;10.10;;;6.20;;
32611;SDS011;19030;49.478;8.986;2023-08-31T02:39:09;9.30;;;6.30;;
32611;SDS011;19030;49.478;8.986;2023-08-31T02:41:10;9.48;;;6.00;;
32611;SDS011;19030;49.478;8.986;2023-08-31T02:43:11;10.07;;;6.10;;
32611;SDS011;19030;49.478;8.986;2023-08-31T02:45:11;9.85;;;5.88;;
32611;SDS011;19030;49.478;8.986;2023-08-31T02:47:12;8.75;;;6.55;;
32611;SDS011;19030;49.478;8.986;2023-08-31T02:49:13;8.73;;;6.00;;
32611;SDS011;19030;49.478;8.986;2023-08-31T02:51:15;13.45;;;6.50;;
32611;SDS011;19030;49.478;8.986;2023-08-31T02:53:15;9.13;;;6.63;;
32611;SDS011;19030;49.478;8.986;2023-08-31T02:55:16;10.25;;;6.30;;
32611;SDS011;19030;49.478;8.986;2023-08-31T02:57:16;9.50;;;6.57;;
32611;SDS011;19030;49.478;8.986;2023-08-31T02:59:19;11.35;;;6.90;;
32611;SDS011;19030;49.478;8.986;2023-08-31T03:01:20;10.95;;;6.28;;
32611;SDS011;19030;49.478;8.986;2023-08-31T03:03:24;11.95;;;7.22;;
32611;SDS011;19030;49.478;8.986;2023-08-31T03:05:24;13.95;;;6.90;;
32611;SDS011;19030;49.478;8.986;2023-08-31T03:07:25;13.73;;;6.80;;
32611;SDS011;19030;49.478;8.986;2023-08-31T03:09:25;12.13;;;7.05;;
32611;SDS011;19030;49.478;8.986;2023-08-31T03:11:26;9.90;;;7.03;;
32611;SDS011;19030;49.478;8.986;2023-08-31T03:13:26;12.27;;;7.10;;
32611;SDS011;19030;49.478;8.986;2023-08-31T03:15:27;11.90;;;7.75;;
32611;SDS011;19030;49.478;8.986;2023-08-31T03:17:28;12.63;;;8.60;;
32611;SDS011;19030;49.478;8.986;2023-08-31T03:19:28;14.55;;;8.65;;
32611;SDS011;19030;49.478;8.986;2023-08-31T03:21:29;12.57;;;8.50;;
32611;SDS011;19030;49.478;8.986;2023-08-31T03:23:29;13.48;;;8.82;;
32611;SDS011;19030;49.478;8.986;2023-08-31T03:25:31;16.42;;;9.05;;
32611;SDS011;19030;49.478;8.986;2023-08-31T03:27:31;12.98;;;9.35;;
32611;SDS011;19030;49.478;8.986;2023-08-31T03:29:32;12.15;;;8.32;;
32611;SDS011;19030;49.478;8.986;2023-08-31T03:31:34;12.73;;;9.10;;
32611;SDS011;19030;49.478;8.986;2023-08-31T03:33:35;15.52;;;9.98;;
32611;SDS011;19030;49.478;8.986;2023-08-31T03:35:36;12.65;;;9.50;;
32611;SDS011;19030;49.478;8.986;2023-08-31T03:37:36;16.05;;;10.15;;
32611;SDS011;19030;49.478;8.986;2023-08-31T03:39:37;19.05;;;10.80;;
32611;SDS011;19030;49.478;8.986;2023-08-31T03:41:37;19.17;;;10.27;;
32611;SDS011;19030;49.478;8.986;2023-08-31T03:43:42;13.80;;;10.13;;
32611;SDS011;19030;49.478;8.986;2023-08-31T03:45:42;20.63;;;9.88;;
32611;SDS011;19030;49.478;8.986;2023-08-31T03:47:43;14.90;;;10.13;;
32611;SDS011;19030;49.478;8.986;2023-08-31T03:49:44;23.58;;;11.00;;
32611;SDS011;19030;49.478;8.986;2023-08-31T03:51:45;14.75;;;10.80;;
32611;SDS011;19030;49.478;8.986;2023-08-31T03:53:46;15.55;;;9.65;;
32611;SDS011;19030;49.478;8.986;2023-08-31T03:55:46;13.98;;;10.07;;
32611;SDS011;19030;49.478;8.986;2023-08-31T03:57:48;16.35;;;10.52;;
32611;SDS011;19030;49.478;8.986;2023-08-31T03:59:54;12.98;;;9.73;;
32611;SDS011;19030;49.478;8.986;2023-08-31T04:01:55;13.52;;;10.10;;
32611;SDS011;19030;49.478;8.986;2023-08-31T04:03:56;14.73;;;10.52;;
32611;SDS011;19030;49.478;8.986;2023-08-31T04:05:56;15.30;;;9.82;;
32611;SDS011;19030;49.478;8.986;2023-08-31T04:07:57;16.17;;;10.05;;
32611;SDS011;19030;49.478;8.986;2023-08-31T04:09:57;18.00;;;10.70;;
32611;SDS011;19030;49.478;8.986;2023-08-31T04:11:59;13.52;;;10.38;;
32611;SDS011;19030;49.478;8.986;2023-08-31T04:14:00;15.48;;;11.25;;
32611;SDS011;19030;49.478;8.986;2023-08-31T04:16:01;12.73;;;10.07;;
32611;SDS011;19030;49.478;8.986;2023-08-31T04:18:02;13.68;;;10.52;;
32611;SDS011;19030;49.478;8.986;2023-08-31T04:20:03;15.05;;;10.73;;
32611;SDS011;19030;49.478;8.986;2023-08-31T04:22:05;16.83;;;10.77;;
32611;SDS011;19030;49.478;8.986;2023-08-31T04:24:06;13.93;;;10.32;;
32611;SDS011;19030;49.478;8.986;2023-08-31T04:26:10;14.70;;;10.38;;
32611;SDS011;19030;49.478;8.986;2023-08-31T04:28:14;16.05;;;11.13;;
32611;SDS011;19030;49.478;8.986;2023-08-31T04:30:15;16.35;;;10.50;;
32611;SDS011;19030;49.478;8.986;2023-08-31T04:32:15;14.45;;;10.93;;
32611;SDS011;19030;49.478;8.986;2023-08-31T04:34:16;17.13;;;11.75;;
32611;SDS011;19030;49.478;8.986;2023-08-31T04:36:17;16.13;;;12.00;;
32611;SDS011;19030;49.478;8.986;2023-08-31T04:38:17;17.23;;;11.80;;
32611;SDS011;19030;49.478;8.986;2023-08-31T04:40:18;16.45;;;11.32;;
32611;SDS011;19030;49.478;8.986;2023-08-31T04:42:18;15.52;;;11.32;;
32611;SDS011;19030;49.478;8.986;2023-08-31T04:44:19;17.20;;;10.52;;
32611;SDS011;19030;49.478;8.986;2023-08-31T04:46:19;13.60;;;11.38;;
32611;SDS011;19030;49.478;8.986;2023-08-31T04:48:20;17.15;;;11.18;;
32611;SDS011;19030;49.478;8.986;2023-08-31T04:50:21;17.63;;;11.10;;
32611;SDS011;19030;49.478;8.986;2023-08-31T04:52:21;18.42;;;11.48;;
32611;SDS011;19030;49.478;8.986;2023-08-31T04:54:22;17.13;;;11.93;;
32611;SDS011;19030;49.478;8.986;2023-08-31T04:56:23;17.27;;;11.32;;
32611;SDS011;19030;49.478;8.986;2023-08-31T04:58:23;15.15;;;10.65;;
32611;SDS011;19030;49.478;8.986;2023-08-31T05:00:25;18.45;;;10.85;;
32611;SDS011;19030;49.478;8.986;2023-08-31T05:02:25;15.60;;;11.13;;
32611;SDS011;19030;49.478;8.986;2023-08-31T05:04:27;14.93;;;10.45;;
32611;SDS011;19030;49.478;8.986;2023-08-31T05:06:28;14.27;;;11.00;;
32611;SDS011;19030;49.478;8.986;2023-08-31T05:08:29;15.57;;;10.75;;
32611;SDS011;19030;49.478;8.986;2023-08-31T05:10:30;14.35;;;10.90;;
32611;SDS011;19030;49.478;8.986;2023-08-31T05:12:30;16.95;;;11.18;;
32611;SDS011;19030;49.478;8.986;2023-08-31T05:14:31;15.15;;;10.45;;
32611;SDS011;19030;49.478;8.986;2023-08-31T05:16:31;14.55;;;10.18;;
32611;SDS011;19030;49.478;8.986;2023-08-31T05:18:32;15.18;;;10.63;;
32611;SDS011;19030;49.478;8.986;2023-08-31T05:20:33;16.02;;;10.98;;
32611;SDS011;19030;49.478;8.986;2023-08-31T05:22:33;18.48;;;11.60;;
32611;SDS011;19030;49.478;8.986;2023-08-31T05:24:34;19.50;;;10.70;;
32611;SDS011;19030;49.478;8.986;2023-08-31T05:26:35;15.20;;;10.60;;
32611;SDS011;19030;49.478;8.986;2023-08-31T05:28:36;16.10;;;10.75;;
32611;SDS011;19030;49.478;8.986;2023-08-31T05:30:36;15.48;;;10.63;;
32611;SDS011;19030;49.478;8.986;2023-08-31T05:32:46;13.32;;;10.10;;
32611;SDS011;19030;49.478;8.986;2023-08-31T05:34:46;16.25;;;10.45;;
32611;SDS011;19030;49.478;8.986;2023-08-31T05:36:47;13.40;;;10.18;;
32611;SDS011;19030;49.478;8.986;2023-08-31T05:38:47;15.20;;;10.13;;
32611;SDS011;19030;49.478;8.986;2023-08-31T05:40:48;13.55;;;10.02;;
32611;SDS011;19030;49.478;8.986;2023-08-31T05:42:48;13.73;;;10.88;;
32611;SDS011;19030;49.478;8.986;2023-08-31T05:44:49;12.48;;;9.13;;
32611;SDS011;19030;49.478;8.986;2023-08-31T05:46:49;16.33;;;9.93;;
32611;SDS011;19030;49.478;8.986;2023-08-31T05:48:50;15.07;;;9.98;;
32611;SDS011;19030;49.478;8.986;2023-08-31T05:50:53;15.07;;;9.75;;
32611;SDS011;19030;49.478;8.986;2023-08-31T05:52:55;12.20;;;9.20;;
32611;SDS011;19030;49.478;8.986;2023-08-31T05:54:56;15.25;;;9.82;;
32611;SDS011;19030;49.478;8.986;2023-08-31T05:56:57;14.27;;;9.88;;
32611;SDS011;19030;49.478;8.986;2023-08-31T05:58:57;12.52;;;10.13;;
32611;SDS011;19030;49.478;8.986;2023-08-31T06:00:58;12.63;;;10.02;;
32611;SDS011;19030;49.478;8.986;2023-08-31T06:02:59;12.02;;;9.52;;
32611;SDS011;19030;49.478;8.986;2023-08-31T06:05:00;13.18;;;9.70;;
32611;SDS011;19030;49.478;8.986;2023-08-31T06:07:00;11.40;;;9.18;;
32611;SDS011;19030;49.478;8.986;2023-08-31T06:09:01;15.52;;;9.18;;
32611;SDS011;19030;49.478;8.986;2023-08-31T06:11:02;12.80;;;9.73;;
32611;SDS011;19030;49.478;8.986;2023-08-31T06:13:02;11.38;;;9.10;;
32611;SDS011;19030;49.478;8.986;2023-08-31T06:15:03;11.57;;;8.80;;
32611;SDS011;19030;49.478;8.986;2023-08-31T06:17:04;11.55;;;9.27;;
32611;SDS011;19030;49.478;8.986;2023-08-31T06:19:05;10.75;;;8.27;;
32611;SDS011;19030;49.478;8.986;2023-08-31T06:21:05;11.38;;;9.00;;
32611;SDS011;19030;49.478;8.986;2023-08-31T06:23:06;11.63;;;8.48;;
32611;SDS011;19030;49.478;8.986;2023-08-31T06:25:07;10.23;;;7.90;;
32611;SDS011;19030;49.478;8.986;2023-08-31T06:27:08;11.77;;;8.57;;
32611;SDS011;19030;49.478;8.986;2023-08-31T06:29:08;11.10;;;7.65;;
32611;SDS011;19030;49.478;8.986;2023-08-31T06:31:10;9.48;;;8.00;;
32611;SDS011;19030;49.478;8.986;2023-08-31T06:33:11;11.88;;;7.65;;
32611;SDS011;19030;49.478;8.986;2023-08-31T06:35:12;11.38;;;7.05;;
32611;SDS011;19030;49.478;8.986;2023-08-31T06:37:13;10.80;;;7.15;;
32611;SDS011;19030;49.478;8.986;2023-08-31T06:39:14;9.93;;;6.97;;
32611;SDS011;19030;49.478;8.986;2023-08-31T06:41:15;10.32;;;7.25;;
32611;SDS011;19030;49.478;8.986;2023-08-31T06:43:16;8.98;;;6.75;;
32611;SDS011;19030;49.478;8.986;2023-08-31T06:45:16;10.43;;;7.45;;
32611;SDS011;19030;49.478;8.986;2023-08-31T06:47:17;11.02;;;7.10;;
32611;SDS011;19030;49.478;8.986;2023-08-31T06:49:18;10.90;;;6.78;;
32611;SDS011;19030;49.478;8.986;2023-08-31T06:51:19;9.70;;;7.20;;
32611;SDS011;19030;49.478;8.986;2023-08-31T06:53:20;10.23;;;7.40;;
32611;SDS011;19030;49.478;8.986;2023-08-31T06:55:21;10.57;;;7.53;;
32611;SDS011;19030;49.478;8.986;2023-08-31T06:57:23;11.13;;;7.00;;
32611;SDS011;19030;49.478;8.986;2023-08-31T06:59:24;10.45;;;5.97;;
32611;SDS011;19030;49.478;8.986;2023-08-31T07:01:25;9.55;;;5.40;;
32611;SDS011;19030;49.478;8.986;2023-08-31T07:03:27;9.48;;;6.63;;
32611;SDS011;19030;49.478;8.986;2023-08-31T07:05:27;8.88;;;6.70;;
32611;SDS011;19030;49.478;8.986;2023-08-31T07:07:29;11.77;;;6.90;;
32611;SDS011;19030;49.478;8.986;2023-08-31T07:09:30;10.30;;;7.63;;
32611;SDS011;19030;49.478;8.986;2023-08-31T07:11:30;8.38;;;6.10;;
32611;SDS011;19030;49.478;8.986;2023-08-31T07:13:31;8.60;;;5.68;;
32611;SDS011;19030;49.478;8.986;2023-08-31T07:15:32;13.30;;;6.47;;
32611;SDS011;19030;49.478;8.986;2023-08-31T07:17:33;9.02;;;6.35;;
32611;SDS011;19030;49.478;8.986;2023-08-31T07:19:36;8.90;;;6.50;;
32611;SDS011;19030;49.478;8.986;2023-08-31T07:21:37;8.63;;;6.40;;
32611;SDS011;19030;49.478;8.986;2023-08-31T07:23:38;10.48;;;6.63;;
32611;SDS011;19030;49.478;8.986;2023-08-31T07:25:38;8.07;;;6.28;;
32611;SDS011;19030;49.478;8.986;2023-08-31T07:27:39;7.85;;;6.78;;
32611;SDS011;19030;49.478;8.986;2023-08-31T07:29:39;8.30;;;7.07;;
32611;SDS011;19030;49.478;8.986;2023-08-31T07:31:40;10.20;;;6.50;;
32611;SDS011;19030;49.478;8.986;2023-08-31T07:33:41;8.70;;;6.60;;
32611;SDS011;19030;49.478;8.986;2023-08-31T07:35:41;9.10;;;6.47;;
32611;SDS011;19030;49.478;8.986;2023-08-31T07:37:42;9.60;;;6.22;;
32611;SDS011;19030;49.478;8.986;2023-08-31T07:39:43;7.40;;;5.88;;
32611;SDS011;19030;49.478;8.986;2023-08-31T07:41:43;9.73;;;6.10;;
32611;SDS011;19030;49.478;8.986;2023-08-31T07:43:44;7.07;;;5.97;;
32611;SDS011;19030;49.478;8.986;2023-08-31T07:45:45;7.47;;;6.10;;
32611;SDS011;19030;49.478;8.986;2023-08-31T07:47:45;9.75;;;8.50;;
32611;SDS011;19030;49.478;8.986;2023-08-31T07:49:46;8.20;;;5.82;;
32611;SDS011;19030;49.478;8.986;2023-08-31T07:51:46;9.95;;;5.88;;
32611;SDS011;19030;49.478;8.986;2023-08-31T07:53:47;8.20;;;5.63;;
32611;SDS011;19030;49.478;8.986;2023-08-31T07:55:51;8.77;;;6.32;;
32611;SDS011;19030;49.478;8.986;2023-08-31T07:59:54;8.63;;;6.10;;
32611;SDS011;19030;49.478;8.986;2023-08-31T08:01:55;10.32;;;5.32;;
32611;SDS011;19030;49.478;8.986;2023-08-31T08:03:55;10.18;;;6.00;;
32611;SDS011;19030;49.478;8.986;2023-08-31T08:05:56;8.80;;;6.47;;
32611;SDS011;19030;49.478;8.986;2023-08-31T08:07:56;8.98;;;6.10;;
32611;SDS011;19030;49.478;8.986;2023-08-31T08:09:57;10.02;;;6.00;;
32611;SDS011;19030;49.478;8.986;2023-08-31T08:11:57;10.88;;;6.10;;
32611;SDS011;19030;49.478;8.986;2023-08-31T08:13:58;8.25;;;6.03;;
32611;SDS011;19030;49.478;8.986;2023-08-31T08:15:58;9.82;;;5.93;;
32611;SDS011;19030;49.478;8.986;2023-08-31T08:17:59;9.45;;;5.50;;
32611;SDS011;19030;49.478;8.986;2023-08-31T08:20:00;7.93;;;4.90;;
32611;SDS011;19030;49.478;8.986;2023-08-31T08:22:00;9.18;;;5.10;;
32611;SDS011;19030;49.478;8.986;2023-08-31T08:24:01;7.70;;;4.55;;
32611;SDS011;19030;49.478;8.986;2023-08-31T08:26:01;6.70;;;4.60;;
32611;SDS011;19030;49.478;8.986;2023-08-31T08:28:02;7.80;;;5.57;;
32611;SDS011;19030;49.478;8.986;2023-08-31T08:30:03;8.88;;;4.78;;
32611;SDS011;19030;49.478;8.986;2023-08-31T08:32:04;6.88;;;4.35;;
32611;SDS011;19030;49.478;8.986;2023-08-31T08:34:06;8.98;;;5.10;;
32611;SDS011;19030;49.478;8.986;2023-08-31T08:36:06;6.35;;;4.13;;
32611;SDS011;19030;49.478;8.986;2023-08-31T08:38:07;9.88;;;5.53;;
32611;SDS011;19030;49.478;8.986;2023-08-31T08:40:07;9.38;;;5.30;;
32611;SDS011;19030;49.478;8.986;2023-08-31T08:42:10;9.70;;;5.70;;
32611;SDS011;19030;49.478;8.986;2023-08-31T08:44:11;7.55;;;4.72;;
32611;SDS011;19030;49.478;8.986;2023-08-31T08:46:16;8.95;;;5.00;;
32611;SDS011;19030;49.478;8.986;2023-08-31T08:48:17;8.27;;;4.70;;
32611;SDS011;19030;49.478;8.986;2023-08-31T08:50:18;8.70;;;4.47;;
32611;SDS011;19030;49.478;8.986;2023-08-31T08:52:21;8.77;;;4.85;;
32611;SDS011;19030;49.478;8.986;2023-08-31T08:54:22;7.07;;;4.40;;
32611;SDS011;19030;49.478;8.986;2023-08-31T08:56:23;7.78;;;4.68;;
32611;SDS011;19030;49.478;8.986;2023-08-31T08:58:24;8.50;;;4.28;;
32611;SDS011;19030;49.478;8.986;2023-08-31T09:00:25;7.78;;;4.38;;
32611;SDS011;19030;49.478;8.986;2023-08-31T09:02:27;6.55;;;4.25;;
32611;SDS011;19030;49.478;8.986;2023-08-31T09:04:29;5.15;;;3.65;;
32611;SDS011;19030;49.478;8.986;2023-08-31T09:06:30;9.10;;;4.10;;
32611;SDS011;19030;49.478;8.986;2023-08-31T09:08:31;8.25;;;4.60;;
32611;SDS011;19030;49.478;8.986;2023-08-31T09:12:36;10.18;;;4.60;;
32611;SDS011;19030;49.478;8.986;2023-08-31T09:14:36;10.77;;;4.93;;
32611;SDS011;19030;49.478;8.986;2023-08-31T09:16:37;9.68;;;4.80;;
32611;SDS011;19030;49.478;8.986;2023-08-31T09:18:37;10.68;;;4.20;;
32611;SDS011;19030;49.478;8.986;2023-08-31T09:20:47;9.95;;;4.70;;
32611;SDS011;19030;49.478;8.986;2023-08-31T09:22:48;6.82;;;3.92;;
32611;SDS011;19030;49.478;8.986;2023-08-31T09:24:50;5.88;;;3.58;;
32611;SDS011;19030;49.478;8.986;2023-08-31T09:26:57;6.05;;;4.00;;
32611;SDS011;19030;49.478;8.986;2023-08-31T09:28:58;6.43;;;3.72;;
32611;SDS011;19030;49.478;8.986;2023-08-31T09:31:04;10.90;;;4.50;;
32611;SDS011;19030;49.478;8.986;2023-08-31T09:33:10;7.53;;;4.25;;
32611;SDS011;19030;49.478;8.986;2023-08-31T09:35:14;8.70;;;4.10;;
32611;SDS011;19030;49.478;8.986;2023-08-31T09:37:17;8.80;;;4.00;;
32611;SDS011;19030;49.478;8.986;2023-08-31T09:39:18;6.88;;;3.90;;
32611;SDS011;19030;49.478;8.986;2023-08-31T09:41:19;10.68;;;4.20;;
32611;SDS011;19030;49.478;8.986;2023-08-31T09:43:20;9.18;;;4.40;;
32611;SDS011;19030;49.478;8.986;2023-08-31T09:45:39;8.98;;;4.28;;
32611;SDS011;19030;49.478;8.986;2023-08-31T09:47:40;7.63;;;4.00;;
32611;SDS011;19030;49.478;8.986;2023-08-31T09:49:41;8.55;;;4.38;;
32611;SDS011;19030;49.478;8.986;2023-08-31T09:51:44;8.07;;;4.63;;
32611;SDS011;19030;49.478;8.986;2023-08-31T09:53:48;7.57;;;4.18;;
32611;SDS011;19030;49.478;8.986;2023-08-31T09:55:52;11.10;;;4.55;;
32611;SDS011;19030;49.478;8.986;2023-08-31T09:57:55;7.13;;;4.05;;
32611;SDS011;19030;49.478;8.986;2023-08-31T09:59:58;9.95;;;4.35;;
32611;SDS011;19030;49.478;8.986;2023-08-31T10:02:00;8.25;;;3.60;;
32611;SDS011;19030;49.478;8.986;2023-08-31T10:04:02;6.32;;;3.60;;
32611;SDS011;19030;49.478;8.986;2023-08-31T10:06:03;10.40;;;3.88;;
32611;SDS011;19030;49.478;8.986;2023-08-31T10:08:04;8.80;;;3.42;;
32611;SDS011;19030;49.478;8.986;2023-08-31T10:10:05;6.53;;;3.60;;
32611;SDS011;19030;49.478;8.986;2023-08-31T10:12:07;8.93;;;3.88;;
32611;SDS011;19030;49.478;8.986;2023-08-31T10:14:08;23.35;;;4.05;;
32611;SDS011;19030;49.478;8.986;2023-08-31T10:16:11;7.00;;;3.38;;
32611;SDS011;19030;49.478;8.986;2023-08-31T10:18:12;6.20;;;3.50;;
32611;SDS011;19030;49.478;8.986;2023-08-31T10:20:14;7.18;;;3.80;;
32611;SDS011;19030;49.478;8.986;2023-08-31T10:22:16;8.02;;;3.45;;
32611;SDS011;19030;49.478;8.986;2023-08-31T10:24:17;8.02;;;3.78;;
32611;SDS011;19030;49.478;8.986;2023-08-31T10:26:24;8.65;;;4.03;;
32611;SDS011;19030;49.478;8.986;2023-08-31T10:28:26;7.07;;;3.45;;
32611;SDS011;19030;49.478;8.986;2023-08-31T10:30:30;6.75;;;3.40;;
32611;SDS011;19030;49.478;8.986;2023-08-31T10:32:30;7.82;;;3.45;;
32611;SDS011;19030;49.478;8.986;2023-08-31T10:34:35;7.85;;;3.90;;
32611;SDS011;19030;49.478;8.986;2023-08-31T10:36:38;11.23;;;4.00;;
32611;SDS011;19030;49.478;8.986;2023-08-31T10:38:41;8.38;;;3.67;;
32611;SDS011;19030;49.478;8.986;2023-08-31T10:40:59;8.75;;;3.40;;
32611;SDS011;19030;49.478;8.986;2023-08-31T10:43:16;8.50;;;3.40;;
32611;SDS011;19030;49.478;8.986;2023-08-31T10:45:20;7.43;;;3.85;;
32611;SDS011;19030;49.478;8.986;2023-08-31T10:47:21;6.88;;;3.63;;
32611;SDS011;19030;49.478;8.986;2023-08-31T10:49:49;9.10;;;3.67;;
32611;SDS011;19030;49.478;8.986;2023-08-31T10:51:57;6.22;;;3.58;;
32611;SDS011;19030;49.478;8.986;2023-08-31T10:56:18;7.75;;;3.47;;
32611;SDS011;19030;49.478;8.986;2023-08-31T10:58:19;8.05;;;3.67;;
32611;SDS011;19030;49.478;8.986;2023-08-31T11:02:56;10.38;;;4.80;;
32611;SDS011;19030;49.478;8.986;2023-08-31T11:07:12;7.85;;;4.25;;
32611;SDS011;19030;49.478;8.986;2023-08-31T11:09:20;7.18;;;3.70;;
32611;SDS011;19030;49.478;8.986;2023-08-31T11:11:22;6.78;;;3.53;;
32611;SDS011;19030;49.478;8.986;2023-08-31T11:13:23;9.23;;;3.65;;
32611;SDS011;19030;49.478;8.986;2023-08-31T11:15:24;6.40;;;3.47;;
32611;SDS011;19030;49.478;8.986;2023-08-31T11:17:26;7.40;;;3.70;;
32611;SDS011;19030;49.478;8.986;2023-08-31T11:19:27;6.78;;;3.67;;
32611;SDS011;19030;49.478;8.986;2023-08-31T11:21:28;8.70;;;3.70;;
32611;SDS011;19030;49.478;8.986;2023-08-31T11:23:31;8.43;;;3.58;;
32611;SDS011;19030;49.478;8.986;2023-08-31T11:25:32;6.00;;;3.38;;
32611;SDS011;19030;49.478;8.986;2023-08-31T11:27:32;7.45;;;3.45;;
32611;SDS011;19030;49.478;8.986;2023-08-31T11:29:36;6.70;;;3.47;;
32611;SDS011;19030;49.478;8.986;2023-08-31T11:31:37;7.78;;;3.78;;
32611;SDS011;19030;49.478;8.986;2023-08-31T11:33:40;7.20;;;3.50;;
32611;SDS011;19030;49.478;8.986;2023-08-31T11:35:43;6.10;;;3.28;;
32611;SDS011;19030;49.478;8.986;2023-08-31T11:37:44;6.50;;;3.30;;
32611;SDS011;19030;49.478;8.986;2023-08-31T11:39:52;8.50;;;3.47;;
32611;SDS011;19030;49.478;8.986;2023-08-31T11:41:53;6.65;;;3.40;;
32611;SDS011;19030;49.478;8.986;2023-08-31T11:43:54;6.50;;;3.30;;
32611;SDS011;19030;49.478;8.986;2023-08-31T11:45:55;8.57;;;3.40;;
32611;SDS011;19030;49.478;8.986;2023-08-31T11:47:56;7.18;;;3.78;;
32611;SDS011;19030;49.478;8.986;2023-08-31T11:49:58;7.38;;;3.20;;
32611;SDS011;19030;49.478;8.986;2023-08-31T11:52:01;8.55;;;3.20;;
32611;SDS011;19030;49.478;8.986;2023-08-31T11:54:03;5.15;;;3.30;;
32611;SDS011;19030;49.478;8.986;2023-08-31T11:56:05;6.72;;;3.90;;
32611;SDS011;19030;49.478;8.986;2023-08-31T11:58:05;6.82;;;3.42;;
32611;SDS011;19030;49.478;8.986;2023-08-31T12:00:08;6.28;;;3.88;;
32611;SDS011;19030;49.478;8.986;2023-08-31T12:02:10;6.53;;;3.47;;
32611;SDS011;19030;49.478;8.986;2023-08-31T12:04:12;5.53;;;3.50;;
32611;SDS011;19030;49.478;8.986;2023-08-31T12:06:17;5.55;;;3.67;;
32611;SDS011;19030;49.478;8.986;2023-08-31T12:08:24;9.07;;;4.10;;
32611;SDS011;19030;49.478;8.986;2023-08-31T12:10:28;6.82;;;3.78;;
32611;SDS011;19030;49.478;8.986;2023-08-31T12:12:29;7.97;;;3.70;;
32611;SDS011;19030;49.478;8.986;2023-08-31T12:14:32;8.10;;;4.05;;
32611;SDS011;19030;49.478;8.986;2023-08-31T12:16:33;9.05;;;3.65;;
32611;SDS011;19030;49.478;8.986;2023-08-31T12:18:36;10.13;;;4.15;;
32611;SDS011;19030;49.478;8.986;2023-08-31T12:20:47;8.52;;;3.50;;
32611;SDS011;19030;49.478;8.986;2023-08-31T12:22:52;6.72;;;3.78;;